Time;durP1;ratioP1;P1;durP2;ratioP2;P2;SDS_P1;SDS_P2;PMS_P1;PMS_P2;Temp;Humidity;BMP_temperature;BMP_pressure;BME280_temperature;BME280_humidity;BME280_pressure;Samples;Min_cycle;Max_cycle;Signal;HPM_P1;HPM_P2
2022/12/12 00:01:39;;;;;;;14.85;8.43;;;12.00;71.90;;;;;;1917290;75;21015;-60
2022/12/12 00:04:08;;;;;;;12.78;7.40;;;11.90;72.10;;;;;;1917177;75;21010;-60
2022/12/12 00:06:37;;;;;;;12.20;7.53;;;11.90;72.50;;;;;;1917083;75;21015;-60
2022/12/12 00:09:08;;;;;;;16.25;8.30;;;11.90;72.50;;;;;;1917000;75;21054;-60
2022/12/12 00:11:37;;;;;;;13.40;7.78;;;11.90;72.70;;;;;;1917209;75;21014;-60
2022/12/12 00:14:06;;;;;;;12.45;7.28;;;11.80;72.60;;;;;;1917062;75;21025;-60
2022/12/12 00:16:35;;;;;;;12.95;8.60;;;11.80;72.90;;;;;;1917117;75;21444;-61
2022/12/12 00:19:04;;;;;;;13.78;7.85;;;11.70;72.90;;;;;;1917203;75;21026;-60
2022/12/12 00:21:33;;;;;;;17.00;7.87;;;11.60;73.20;;;;;;1916923;75;21010;-60
2022/12/12 00:24:02;;;;;;;12.50;7.22;;;11.60;73.40;;;;;;1916988;75;21502;-60
2022/12/12 00:26:33;;;;;;;13.38;6.17;;;11.50;73.40;;;;;;1916977;75;21108;-60
2022/12/12 00:29:03;;;;;;;11.88;6.97;;;11.40;74.00;;;;;;1917088;75;21042;-61
2022/12/12 00:31:33;;;;;;;12.25;6.95;;;11.40;74.20;;;;;;1917001;75;21014;-61
2022/12/12 00:34:02;;;;;;;11.57;6.65;;;11.30;74.30;;;;;;1916947;75;21088;-60
2022/12/12 00:36:31;;;;;;;10.68;6.47;;;11.30;74.50;;;;;;1916981;75;21015;-60
2022/12/12 00:39:00;;;;;;;13.38;7.15;;;11.30;74.90;;;;;;1916973;75;21066;-60
2022/12/12 00:41:30;;;;;;;11.95;6.33;;;11.20;74.90;;;;;;1916950;75;21027;-60
2022/12/12 00:43:59;;;;;;;13.18;6.80;;;11.10;74.90;;;;;;1916988;75;21054;-61
2022/12/12 00:46:33;;;;;;;17.42;6.47;;;11.20;75.20;;;;;;1917063;75;21088;-61
2022/12/12 00:48:59;;;;;;;13.38;6.70;;;11.10;75.10;;;;;;1916966;74;21022;-60
2022/12/12 00:51:29;;;;;;;8.50;5.78;;;11.10;75.40;;;;;;1916995;75;21038;-61
2022/12/12 00:54:00;;;;;;;9.13;5.83;;;11.10;75.40;;;;;;1916965;74;20986;-61
2022/12/12 00:56:30;;;;;;;10.68;6.47;;;11.10;76.00;;;;;;1916966;74;21018;-61
2022/12/12 00:59:01;;;;;;;11.43;6.40;;;11.20;76.40;;;;;;1916868;74;21327;-61
2022/12/12 01:01:32;;;;;;;13.22;6.35;;;11.20;75.90;;;;;;1916926;75;21101;-60
2022/12/12 01:04:03;;;;;;;9.35;6.08;;;11.20;76.00;;;;;;1916948;75;20983;-60
2022/12/12 01:06:33;;;;;;;12.60;6.60;;;11.20;75.70;;;;;;1916975;75;21100;-60
2022/12/12 01:09:02;;;;;;;9.28;5.97;;;11.20;75.70;;;;;;1916894;75;21026;-61
2022/12/12 01:11:31;;;;;;;11.00;5.83;;;11.20;75.70;;;;;;1916940;75;20987;-61
2022/12/12 01:14:01;;;;;;;11.33;7.15;;;11.20;75.70;;;;;;1917025;75;21109;-60
2022/12/12 01:16:30;;;;;;;12.68;6.08;;;11.20;76.00;;;;;;1916964;75;21330;-60
2022/12/12 01:19:00;;;;;;;7.33;4.53;;;11.30;76.30;;;;;;1917056;75;21014;-60
2022/12/12 01:21:29;;;;;;;6.90;3.90;;;11.30;76.10;;;;;;1917025;75;21014;-60
2022/12/12 01:23:58;;;;;;;7.17;3.55;;;11.50;75.80;;;;;;1917016;75;21108;-61
2022/12/12 01:26:27;;;;;;;8.60;4.05;;;11.80;74.20;;;;;;1917044;75;21101;-60
2022/12/12 01:28:56;;;;;;;8.30;4.33;;;12.20;74.20;;;;;;1917128;74;21030;-60
2022/12/12 01:31:25;;;;;;;6.85;3.72;;;12.50;73.20;;;;;;1917055;74;21086;-60
2022/12/12 01:33:54;;;;;;;7.33;4.60;;;12.80;72.10;;;;;;1917117;75;21451;-60
2022/12/12 01:36:24;;;;;;;7.35;4.33;;;13.10;71.40;;;;;;1917092;74;21434;-61
2022/12/12 01:38:55;;;;;;;6.00;3.80;;;13.20;70.30;;;;;;1917030;75;21068;-60
2022/12/12 01:41:25;;;;;;;5.85;3.80;;;13.50;70.30;;;;;;1917032;75;21042;-60
2022/12/12 01:43:55;;;;;;;6.50;3.65;;;13.70;69.70;;;;;;1917043;75;21010;-61
2022/12/12 01:46:26;;;;;;;7.95;4.92;;;13.80;69.10;;;;;;1917031;74;21556;-60
2022/12/12 01:48:59;;;;;;;5.92;3.77;;;14.00;68.20;;;;;;1916285;75;21100;-60
2022/12/12 01:51:29;;;;;;;6.08;3.50;;;14.00;67.90;;;;;;1916123;75;21437;-60
2022/12/12 01:54:01;;;;;;;6.28;4.00;;;14.10;66.90;;;;;;1917032;75;21107;-61
2022/12/12 01:56:32;;;;;;;7.85;4.75;;;14.20;66.60;;;;;;1917119;75;21113;-60
2022/12/12 01:59:02;;;;;;;9.45;4.28;;;14.30;66.00;;;;;;1917150;74;21062;-60
2022/12/12 02:01:32;;;;;;;8.03;4.42;;;14.40;66.20;;;;;;1919678;74;21101;-60
2022/12/12 02:04:03;;;;;;;7.22;3.92;;;14.40;66.10;;;;;;1919881;75;21018;-60
2022/12/12 02:06:32;;;;;;;7.08;4.25;;;14.50;66.10;;;;;;1920011;75;21054;-60
2022/12/12 02:09:04;;;;;;;8.08;4.05;;;14.50;65.70;;;;;;1919916;75;21127;-61
2022/12/12 02:11:35;;;;;;;7.65;3.58;;;14.50;65.40;;;;;;1920036;75;21534;-61
2022/12/12 02:14:04;;;;;;;7.03;3.58;;;14.60;65.00;;;;;;1919889;75;21030;-60
2022/12/12 02:16:42;;;;;;;6.60;4.05;;;14.70;65.60;;;;;;1919940;75;21010;-60
2022/12/12 02:19:47;;;;;;;9.18;4.22;;;14.70;64.90;;;;;;1825771;78;21108;-60
2022/12/12 02:22:31;;;;;;;8.95;3.77;;;14.70;64.90;;;;;;1868517;76;21048;-60
2022/12/12 02:25:32;;;;;;;12.63;4.60;;;14.80;64.50;;;;;;1867404;76;21617;-61
2022/12/12 02:28:07;;;;;;;5.72;4.05;;;14.80;64.10;;;;;;1868392;77;21169;-60
2022/12/12 02:30:55;;;;;;;7.33;4.22;;;14.80;64.00;;;;;;1867472;76;21112;-60
2022/12/12 02:33:39;;;;;;;6.20;3.70;;;14.90;64.50;;;;;;1868438;77;21028;-60
2022/12/12 02:36:14;;;;;;;7.17;3.90;;;14.80;63.70;;;;;;1784922;78;21069;-61
2022/12/12 02:38:57;;;;;;;9.30;4.85;;;14.90;63.80;;;;;;1867938;76;21524;-60
2022/12/12 02:41:45;;;;;;;9.40;4.83;;;14.90;63.80;;;;;;1836390;78;21053;-61
2022/12/12 02:44:29;;;;;;;5.70;3.35;;;14.90;63.70;;;;;;1868402;76;20995;-60
2022/12/12 02:47:15;;;;;;;6.70;4.17;;;14.90;64.00;;;;;;1837431;78;21084;-60
2022/12/12 02:49:53;;;;;;;7.75;4.42;;;14.90;64.20;;;;;;1868301;76;21106;-60
2022/12/12 02:52:23;;;;;;;7.60;4.20;;;14.80;64.50;;;;;;1868288;77;21034;-60
2022/12/12 02:54:52;;;;;;;7.47;3.92;;;14.80;64.10;;;;;;1868285;77;21102;-60
2022/12/12 02:57:23;;;;;;;8.58;4.37;;;14.80;64.50;;;;;;1868261;76;21131;-60
2022/12/12 03:00:03;;;;;;;6.35;3.72;;;14.80;64.20;;;;;;1868226;76;21055;-60
2022/12/12 03:02:44;;;;;;;7.83;4.72;;;14.80;64.00;;;;;;1835892;78;21037;-60
2022/12/12 03:07:58;;;;;;;6.30;4.30;;;14.90;64.30;;;;;;1796828;76;21030;-60
2022/12/12 03:10:42;;;;;;;6.22;4.30;;;14.80;64.10;;;;;;1867954;76;21561;-60
2022/12/12 03:13:26;;;;;;;6.28;3.65;;;14.80;63.30;;;;;;1868194;76;21030;-60
2022/12/12 03:16:26;;;;;;;7.80;4.25;;;14.80;63.70;;;;;;1867729;76;21032;-60
2022/12/12 03:19:10;;;;;;;8.20;4.20;;;14.80;63.40;;;;;;1837439;78;21175;-60
2022/12/12 03:21:57;;;;;;;5.20;3.47;;;14.80;62.60;;;;;;1837152;78;21105;-60
2022/12/12 03:24:35;;;;;;;8.10;3.52;;;14.80;62.30;;;;;;1837190;78;21095;-61
2022/12/12 03:27:16;;;;;;;5.35;3.47;;;14.90;62.60;;;;;;1871872;77;21465;-60
2022/12/12 03:30:01;;;;;;;7.90;4.00;;;14.90;62.50;;;;;;1869693;76;21039;-60
2022/12/12 03:32:35;;;;;;;8.03;3.95;;;14.90;62.50;;;;;;1869327;77;21035;-60
2022/12/12 03:35:10;;;;;;;8.78;4.08;;;14.90;61.70;;;;;;1832635;78;21065;-60
2022/12/12 03:37:42;;;;;;;6.40;3.70;;;14.90;61.20;;;;;;1870324;77;21063;-60
2022/12/12 03:40:20;;;;;;;6.00;3.62;;;14.90;61.80;;;;;;1867970;76;21523;-60
2022/12/12 03:42:51;;;;;;;4.17;3.30;;;14.90;61.70;;;;;;1868273;77;21070;-60
2022/12/12 03:45:38;;;;;;;7.60;3.65;;;15.00;60.80;;;;;;1867637;76;21527;-60
2022/12/12 03:48:25;;;;;;;7.37;4.40;;;15.00;61.40;;;;;;1868260;77;21146;-60
2022/12/12 03:51:02;;;;;;;8.03;3.52;;;15.00;60.70;;;;;;1868261;77;21492;-60
2022/12/12 03:53:37;;;;;;;5.85;3.67;;;15.00;60.80;;;;;;1868263;77;21133;-60
2022/12/12 03:56:27;;;;;;;6.92;4.03;;;15.00;60.70;;;;;;1868395;77;21554;-60
2022/12/12 03:59:04;;;;;;;7.85;3.37;;;15.00;60.60;;;;;;1833485;78;21565;-60
2022/12/12 04:01:51;;;;;;;7.97;3.83;;;15.00;60.30;;;;;;1822929;77;21090;-60
2022/12/12 04:04:33;;;;;;;6.62;3.90;;;15.00;60.60;;;;;;1865029;77;21137;-60
2022/12/12 04:07:10;;;;;;;9.78;4.03;;;15.00;60.70;;;;;;1904024;75;21039;-60
2022/12/12 04:15:45;;;;;;;5.62;3.58;;;15.00;61.00;;;;;;1865175;77;21117;-60
2022/12/12 04:18:20;;;;;;;7.15;3.83;;;14.90;60.70;;;;;;1901681;75;21124;-60
2022/12/12 04:24:07;;;;;;;7.55;3.87;;;14.90;61.20;;;;;;1870052;77;21208;-60
2022/12/12 04:26:47;;;;;;;10.78;3.83;;;14.80;60.90;;;;;;1866376;77;21016;-60
2022/12/12 04:29:34;;;;;;;9.73;4.10;;;14.80;60.90;;;;;;1904346;75;21504;-60
2022/12/12 04:32:24;;;;;;;7.20;4.33;;;14.90;60.40;;;;;;1901952;75;21022;-60
2022/12/12 04:34:59;;;;;;;7.20;3.37;;;14.90;60.50;;;;;;1902213;75;21117;-60
2022/12/12 04:37:33;;;;;;;7.25;3.62;;;14.90;60.10;;;;;;1902241;75;21061;-60
2022/12/12 04:40:05;;;;;;;8.60;3.90;;;15.00;60.00;;;;;;1902283;75;21551;-60
2022/12/12 04:42:39;;;;;;;8.85;3.95;;;15.00;60.30;;;;;;1902107;75;21479;-60
2022/12/12 04:45:11;;;;;;;10.38;4.37;;;15.00;60.10;;;;;;1900792;75;21134;-60
2022/12/12 04:47:42;;;;;;;6.08;3.47;;;15.00;59.70;;;;;;1902267;75;21487;-60
2022/12/12 04:50:12;;;;;;;5.70;3.58;;;15.00;59.70;;;;;;1902143;75;21081;-60
2022/12/12 04:52:43;;;;;;;6.00;3.25;;;15.00;59.70;;;;;;1902072;75;21033;-60
2022/12/12 04:55:18;;;;;;;4.78;3.17;;;15.00;59.60;;;;;;1902015;75;21103;-61
2022/12/12 04:57:49;;;;;;;8.75;3.67;;;15.00;59.60;;;;;;1869660;77;21042;-61
2022/12/12 05:00:19;;;;;;;8.05;4.10;;;15.00;59.60;;;;;;1902145;75;21442;-60
2022/12/12 05:03:07;;;;;;;5.50;3.12;;;15.10;60.00;;;;;;1884522;74;21066;-60
2022/12/12 05:05:56;;;;;;;9.88;4.05;;;15.00;60.10;;;;;;1916886;75;21014;-60
2022/12/12 05:08:28;;;;;;;9.85;3.58;;;15.00;60.40;;;;;;1916891;75;21049;-60
2022/12/12 05:10:59;;;;;;;7.05;3.70;;;15.00;60.10;;;;;;1915165;75;21489;-60
2022/12/12 05:13:31;;;;;;;5.28;3.05;;;14.90;60.20;;;;;;1916856;74;21069;-60
2022/12/12 05:16:02;;;;;;;8.78;3.67;;;15.00;60.30;;;;;;1916616;75;21187;-60
2022/12/12 05:18:31;;;;;;;5.53;3.65;;;15.00;60.40;;;;;;1916937;74;21080;-61
2022/12/12 05:21:00;;;;;;;9.38;3.95;;;15.00;60.60;;;;;;1916825;75;21096;-60
2022/12/12 05:23:30;;;;;;;7.28;4.47;;;14.90;60.90;;;;;;1916765;74;21050;-60
2022/12/12 05:25:59;;;;;;;6.40;4.42;;;14.90;61.00;;;;;;1916714;75;21030;-60
2022/12/12 05:28:28;;;;;;;7.80;4.72;;;14.90;61.30;;;;;;1916841;75;21018;-60
2022/12/12 05:30:57;;;;;;;7.37;3.62;;;14.90;61.50;;;;;;1916936;75;21080;-60
2022/12/12 05:33:27;;;;;;;7.25;4.37;;;14.80;61.50;;;;;;1916826;73;21429;-60
2022/12/12 05:35:56;;;;;;;11.65;3.87;;;14.80;61.60;;;;;;1916841;75;20986;-60
2022/12/12 05:38:25;;;;;;;5.85;3.52;;;14.70;61.60;;;;;;1916771;75;21030;-60
2022/12/12 05:40:54;;;;;;;8.18;4.05;;;14.80;61.50;;;;;;1916724;75;21010;-61
2022/12/12 05:43:23;;;;;;;6.53;4.00;;;14.80;61.30;;;;;;1916521;75;21149;-60
2022/12/12 05:45:53;;;;;;;5.97;3.35;;;14.80;61.30;;;;;;1916699;75;21452;-60
2022/12/12 05:48:22;;;;;;;9.55;3.85;;;14.80;61.30;;;;;;1916628;75;21030;-60
2022/12/12 05:50:52;;;;;;;8.15;3.55;;;14.90;61.30;;;;;;1916535;75;21108;-60
2022/12/12 05:53:21;;;;;;;5.33;3.10;;;14.80;61.20;;;;;;1916710;75;21092;-60
2022/12/12 05:55:51;;;;;;;7.40;3.87;;;14.90;61.60;;;;;;1916718;75;21437;-60
2022/12/12 05:58:20;;;;;;;11.38;4.28;;;14.90;61.90;;;;;;1916713;75;21054;-60
2022/12/12 06:00:51;;;;;;;6.67;3.98;;;14.90;62.40;;;;;;1916496;75;21120;-60
2022/12/12 06:03:20;;;;;;;4.67;3.30;;;14.80;62.50;;;;;;1918337;74;21058;-60
2022/12/12 06:05:49;;;;;;;12.80;5.10;;;14.80;62.70;;;;;;1919643;75;21061;-60
2022/12/12 06:08:18;;;;;;;7.45;4.35;;;14.80;62.80;;;;;;1919851;75;21080;-60
2022/12/12 06:10:48;;;;;;;8.75;4.65;;;14.80;62.80;;;;;;1919612;75;21045;-60
2022/12/12 06:13:17;;;;;;;9.43;4.85;;;14.80;62.70;;;;;;1919499;75;21018;-60
2022/12/12 06:15:46;;;;;;;6.72;3.77;;;14.80;62.40;;;;;;1919550;75;21409;-60
2022/12/12 06:18:15;;;;;;;8.55;4.37;;;14.80;62.30;;;;;;1919626;75;21070;-60
2022/12/12 06:20:45;;;;;;;7.70;4.30;;;14.80;62.30;;;;;;1919649;75;21030;-61
2022/12/12 06:23:14;;;;;;;7.50;3.65;;;14.80;62.40;;;;;;1919861;75;21068;-60
2022/12/12 06:25:44;;;;;;;6.53;4.28;;;14.90;62.00;;;;;;1919730;75;21026;-60
2022/12/12 06:28:13;;;;;;;6.05;3.22;;;14.80;62.20;;;;;;1919619;75;21384;-60
2022/12/12 06:30:43;;;;;;;6.10;3.70;;;14.90;61.40;;;;;;1919466;75;21053;-60
2022/12/12 06:33:12;;;;;;;6.58;3.80;;;14.90;61.60;;;;;;1919527;75;20995;-60
2022/12/12 06:35:41;;;;;;;8.68;3.83;;;14.90;61.50;;;;;;1919736;75;21038;-60
2022/12/12 06:38:10;;;;;;;8.25;4.15;;;14.90;61.40;;;;;;1919609;75;21487;-60
2022/12/12 06:40:40;;;;;;;7.62;4.05;;;14.90;61.30;;;;;;1919568;75;21030;-60
2022/12/12 06:43:09;;;;;;;8.05;4.65;;;15.00;60.90;;;;;;1919466;75;21096;-60
2022/12/12 06:45:38;;;;;;;5.50;3.22;;;15.00;61.10;;;;;;1919722;75;20990;-60
2022/12/12 06:48:08;;;;;;;6.60;3.72;;;15.00;60.90;;;;;;1919622;75;21107;-60
2022/12/12 06:50:42;;;;;;;6.03;4.00;;;15.00;60.40;;;;;;1919522;75;21018;-60
2022/12/12 06:53:16;;;;;;;5.80;3.27;;;15.00;60.70;;;;;;1919710;75;21096;-60
2022/12/12 06:55:43;;;;;;;8.43;3.95;;;15.00;60.20;;;;;;1919435;73;21022;-60
2022/12/12 06:58:13;;;;;;;7.47;3.95;;;15.10;60.30;;;;;;1919716;75;20994;-60
2022/12/12 07:00:42;;;;;;;7.55;3.90;;;15.10;60.20;;;;;;1919580;75;21013;-60
2022/12/12 07:03:13;;;;;;;11.48;4.28;;;15.10;60.40;;;;;;1918736;74;21571;-61
2022/12/12 07:05:42;;;;;;;6.97;4.08;;;15.10;60.30;;;;;;1916683;75;21010;-61
2022/12/12 07:08:11;;;;;;;7.28;4.30;;;15.10;60.10;;;;;;1916859;75;21112;-60
2022/12/12 07:10:40;;;;;;;5.58;3.77;;;15.10;60.00;;;;;;1916741;74;21123;-60
2022/12/12 07:13:10;;;;;;;6.85;4.08;;;15.10;60.10;;;;;;1916977;74;21010;-61
2022/12/12 07:15:47;;;;;;;10.82;4.50;;;15.10;60.20;;;;;;1916852;74;21100;-60
2022/12/12 07:18:18;;;;;;;9.15;4.75;;;15.10;60.00;;;;;;1916948;75;21010;-61
2022/12/12 07:20:47;;;;;;;9.55;4.37;;;15.10;60.00;;;;;;1916954;75;21091;-61
2022/12/12 07:23:16;;;;;;;6.90;4.42;;;15.10;60.00;;;;;;1916891;75;21018;-61
2022/12/12 07:25:46;;;;;;;5.05;3.35;;;15.10;59.90;;;;;;1917025;75;21019;-59
2022/12/12 07:28:15;;;;;;;9.00;4.12;;;15.20;60.80;;;;;;1916870;74;21029;-57
2022/12/12 07:30:46;;;;;;;8.88;3.67;;;15.20;61.70;;;;;;1916833;75;21034;-59
2022/12/12 07:33:16;;;;;;;12.53;4.47;;;15.30;62.60;;;;;;1915316;75;21134;-54
2022/12/12 07:35:45;;;;;;;9.08;4.92;;;15.30;62.60;;;;;;1916196;75;21050;-55
2022/12/12 07:38:15;;;;;;;9.43;5.67;;;15.40;61.90;;;;;;1916255;75;21054;-54
2022/12/12 07:40:44;;;;;;;7.03;4.05;;;15.40;62.00;;;;;;1916245;75;21034;-55
2022/12/12 07:43:13;;;;;;;13.25;5.70;;;15.40;61.80;;;;;;1916482;74;21043;-55
2022/12/12 07:45:46;;;;;;;8.23;4.47;;;15.50;61.90;;;;;;1916289;75;21516;-55
2022/12/12 07:48:15;;;;;;;7.08;4.22;;;15.50;61.40;;;;;;1916282;75;21080;-55
2022/12/12 07:50:45;;;;;;;11.30;4.20;;;15.50;61.20;;;;;;1916418;74;21531;-53
2022/12/12 07:53:14;;;;;;;7.40;4.40;;;15.60;61.80;;;;;;1916295;75;21093;-54
2022/12/12 07:55:43;;;;;;;9.05;5.35;;;15.60;62.00;;;;;;1916257;75;21030;-59
2022/12/12 07:58:12;;;;;;;7.08;4.55;;;15.60;62.10;;;;;;1916486;73;21078;-54
2022/12/12 08:00:42;;;;;;;9.28;4.42;;;15.70;61.60;;;;;;1916380;75;21178;-59
2022/12/12 08:03:11;;;;;;;7.72;4.33;;;15.70;61.40;;;;;;1916192;74;21027;-52
2022/12/12 08:05:41;;;;;;;12.15;4.37;;;15.70;60.90;;;;;;1916385;75;21081;-50
2022/12/12 08:08:10;;;;;;;9.35;4.83;;;15.70;61.00;;;;;;1916310;75;21111;-48
2022/12/12 08:10:40;;;;;;;7.97;4.53;;;15.70;60.80;;;;;;1916145;75;21484;-46
2022/12/12 08:13:09;;;;;;;6.42;4.70;;;15.70;60.70;;;;;;1916360;75;21042;-49
2022/12/12 08:15:38;;;;;;;12.68;4.67;;;15.70;60.30;;;;;;1916229;75;21100;-53
2022/12/12 08:18:07;;;;;;;9.48;5.10;;;15.70;60.20;;;;;;1915620;75;21069;-57
2022/12/12 08:20:41;;;;;;;16.20;8.50;;;15.70;60.40;;;;;;1911263;75;21014;-55
2022/12/12 08:23:10;;;;;;;11.33;5.85;;;15.60;60.40;;;;;;1916246;75;21594;-51
2022/12/12 08:25:39;;;;;;;5.80;3.83;;;15.60;60.70;;;;;;1916267;75;21046;-52
2022/12/12 08:28:08;;;;;;;9.45;4.30;;;15.60;60.50;;;;;;1916163;75;21088;-52
2022/12/12 08:30:37;;;;;;;10.65;4.67;;;15.60;60.60;;;;;;1912126;75;21011;-50
2022/12/12 08:33:07;;;;;;;7.53;4.20;;;15.60;60.70;;;;;;1902241;75;21055;-52
2022/12/12 08:35:36;;;;;;;6.87;4.22;;;15.60;60.50;;;;;;1902355;75;21055;-54
2022/12/12 08:38:05;;;;;;;7.53;4.67;;;15.60;60.50;;;;;;1907516;75;21132;-50
2022/12/12 08:40:36;;;;;;;14.30;4.30;;;15.60;60.30;;;;;;1911565;75;21545;-49
2022/12/12 08:43:05;;;;;;;9.33;3.95;;;15.60;60.90;;;;;;1902518;75;21082;-50
2022/12/12 08:45:34;;;;;;;12.45;5.45;;;15.60;60.20;;;;;;1902360;75;21136;-51
2022/12/12 08:48:05;;;;;;;8.90;5.42;;;15.60;60.20;;;;;;1902421;75;21168;-49
2022/12/12 08:50:35;;;;;;;9.43;4.75;;;15.60;60.00;;;;;;1900122;75;21098;-49
2022/12/12 08:53:04;;;;;;;13.30;5.25;;;15.60;60.20;;;;;;1913000;75;21047;-48
2022/12/12 08:55:34;;;;;;;12.78;5.22;;;15.60;59.90;;;;;;1914396;75;21086;-51
2022/12/12 08:58:03;;;;;;;22.82;5.22;;;15.60;60.20;;;;;;1914453;75;21093;-50
2022/12/12 09:00:32;;;;;;;13.10;5.12;;;15.60;60.10;;;;;;1914261;75;21405;-49
2022/12/12 09:03:01;;;;;;;10.18;4.60;;;15.60;60.00;;;;;;1914548;75;21106;-49
2022/12/12 09:05:30;;;;;;;16.27;4.70;;;15.60;59.90;;;;;;1910553;74;21115;-49
2022/12/12 09:08:00;;;;;;;12.78;5.92;;;15.60;59.70;;;;;;1910435;74;21182;-50
2022/12/12 09:10:29;;;;;;;12.80;4.92;;;15.60;59.70;;;;;;1920844;74;21109;-47
